sensor_id;sensor_type;location;lat;lon;timestamp;temperature;humidity
41985;DHT22;28319;48.116;10.818;2024-01-30T00:04:41;2.50;99.90
41985;DHT22;28319;48.116;10.818;2024-01-30T00:09:46;2.40;99.90
41985;DHT22;28319;48.116;10.818;2024-01-30T00:14:48;2.40;99.90
41985;DHT22;28319;48.116;10.818;2024-01-30T00:19:50;2.30;99.90
41985;DHT22;28319;48.116;10.818;2024-01-30T00:24:54;2.30;99.90
41985;DHT22;28319;48.116;10.818;2024-01-30T00:29:56;2.20;99.90
41985;DHT22;28319;48.116;10.818;2024-01-30T00:35:01;2.10;99.90
41985;DHT22;28319;48.116;10.818;2024-01-30T00:40:06;2.10;99.90
41985;DHT22;28319;48.116;10.818;2024-01-30T00:45:13;2.10;99.90
41985;DHT22;28319;48.116;10.818;2024-01-30T00:50:16;2.30;99.90
41985;DHT22;28319;48.116;10.818;2024-01-30T00:55:20;2.00;99.90
41985;DHT22;28319;48.116;10.818;2024-01-30T01:00:22;2.00;99.90
41985;DHT22;28319;48.116;10.818;2024-01-30T01:05:29;2.10;99.90
41985;DHT22;28319;48.116;10.818;2024-01-30T01:10:34;2.10;99.90
41985;DHT22;28319;48.116;10.818;2024-01-30T01:15:36;2.00;99.90
41985;DHT22;28319;48.116;10.818;2024-01-30T01:20:38;2.00;99.90
41985;DHT22;28319;48.116;10.818;2024-01-30T01:25:41;1.90;99.90
41985;DHT22;28319;48.116;10.818;2024-01-30T01:30:44;1.80;99.90
41985;DHT22;28319;48.116;10.818;2024-01-30T01:35:46;1.80;99.90
41985;DHT22;28319;48.116;10.818;2024-01-30T01:40:50;1.80;99.90
41985;DHT22;28319;48.116;10.818;2024-01-30T01:45:52;1.70;99.90
41985;DHT22;28319;48.116;10.818;2024-01-30T01:50:54;1.70;99.90
41985;DHT22;28319;48.116;10.818;2024-01-30T01:55:57;1.80;99.90
41985;DHT22;28319;48.116;10.818;2024-01-30T02:00:59;1.80;99.90
41985;DHT22;28319;48.116;10.818;2024-01-30T02:06:02;1.80;99.90
41985;DHT22;28319;48.116;10.818;2024-01-30T02:11:06;1.70;99.90
41985;DHT22;28319;48.116;10.818;2024-01-30T02:16:08;1.60;99.90
41985;DHT22;28319;48.116;10.818;2024-01-30T02:21:12;1.60;99.90
41985;DHT22;28319;48.116;10.818;2024-01-30T02:26:14;1.60;99.90
41985;DHT22;28319;48.116;10.818;2024-01-30T02:31:16;1.60;99.90
41985;DHT22;28319;48.116;10.818;2024-01-30T02:36:19;1.50;99.90
41985;DHT22;28319;48.116;10.818;2024-01-30T02:41:21;1.60;99.90
41985;DHT22;28319;48.116;10.818;2024-01-30T02:46:23;1.60;99.90
41985;DHT22;28319;48.116;10.818;2024-01-30T02:51:27;1.60;99.90
41985;DHT22;28319;48.116;10.818;2024-01-30T02:56:29;1.50;99.90
41985;DHT22;28319;48.116;10.818;2024-01-30T03:01:31;1.30;99.90
41985;DHT22;28319;48.116;10.818;2024-01-30T03:06:34;1.30;99.90
41985;DHT22;28319;48.116;10.818;2024-01-30T03:11:36;1.20;99.90
41985;DHT22;28319;48.116;10.818;2024-01-30T03:16:38;1.20;99.90
41985;DHT22;28319;48.116;10.818;2024-01-30T03:21:42;1.10;99.90
41985;DHT22;28319;48.116;10.818;2024-01-30T03:26:44;1.10;99.90
41985;DHT22;28319;48.116;10.818;2024-01-30T03:31:46;1.10;99.90
41985;DHT22;28319;48.116;10.818;2024-01-30T03:36:50;1.00;99.90
41985;DHT22;28319;48.116;10.818;2024-01-30T03:41:52;1.00;99.90
41985;DHT22;28319;48.116;10.818;2024-01-30T03:46:53;1.00;99.90
41985;DHT22;28319;48.116;10.818;2024-01-30T03:51:57;1.00;99.90
41985;DHT22;28319;48.116;10.818;2024-01-30T03:56:59;1.00;99.90
41985;DHT22;28319;48.116;10.818;2024-01-30T04:02:01;1.00;99.90
41985;DHT22;28319;48.116;10.818;2024-01-30T04:07:04;1.00;99.90
41985;DHT22;28319;48.116;10.818;2024-01-30T04:12:07;1.10;99.90
41985;DHT22;28319;48.116;10.818;2024-01-30T04:17:09;1.00;99.90
41985;DHT22;28319;48.116;10.818;2024-01-30T04:22:12;1.00;99.90
41985;DHT22;28319;48.116;10.818;2024-01-30T04:27:14;0.90;99.90
41985;DHT22;28319;48.116;10.818;2024-01-30T04:32:16;0.90;99.90
41985;DHT22;28319;48.116;10.818;2024-01-30T04:37:20;1.00;99.90
41985;DHT22;28319;48.116;10.818;2024-01-30T04:42:22;0.90;99.90
41985;DHT22;28319;48.116;10.818;2024-01-30T04:47:24;0.80;99.90
41985;DHT22;28319;48.116;10.818;2024-01-30T04:52:27;0.80;99.90
41985;DHT22;28319;48.116;10.818;2024-01-30T04:57:29;0.80;99.90
41985;DHT22;28319;48.116;10.818;2024-01-30T05:02:32;0.80;99.90
41985;DHT22;28319;48.116;10.818;2024-01-30T05:07:36;0.80;99.90
41985;DHT22;28319;48.116;10.818;2024-01-30T05:12:39;0.80;99.90
41985;DHT22;28319;48.116;10.818;2024-01-30T05:17:41;0.70;99.90
41985;DHT22;28319;48.116;10.818;2024-01-30T05:22:44;0.70;99.90
41985;DHT22;28319;48.116;10.818;2024-01-30T05:27:46;0.60;99.90
41985;DHT22;28319;48.116;10.818;2024-01-30T05:32:48;0.50;99.90
41985;DHT22;28319;48.116;10.818;2024-01-30T05:37:51;0.50;99.90
41985;DHT22;28319;48.116;10.818;2024-01-30T05:42:54;0.70;99.90
41985;DHT22;28319;48.116;10.818;2024-01-30T05:47:56;0.50;99.90
41985;DHT22;28319;48.116;10.818;2024-01-30T05:52:59;0.50;99.90
41985;DHT22;28319;48.116;10.818;2024-01-30T05:58:01;0.60;99.90
41985;DHT22;28319;48.116;10.818;2024-01-30T06:03:03;0.70;99.90
41985;DHT22;28319;48.116;10.818;2024-01-30T06:08:07;0.60;99.90
41985;DHT22;28319;48.116;10.818;2024-01-30T06:13:09;0.60;99.90
41985;DHT22;28319;48.116;10.818;2024-01-30T06:18:11;0.50;99.90
41985;DHT22;28319;48.116;10.818;2024-01-30T06:23:14;0.50;99.90
41985;DHT22;28319;48.116;10.818;2024-01-30T06:28:16;0.50;99.90
41985;DHT22;28319;48.116;10.818;2024-01-30T06:33:18;0.50;99.90
41985;DHT22;28319;48.116;10.818;2024-01-30T06:38:21;0.50;99.90
41985;DHT22;28319;48.116;10.818;2024-01-30T06:43:23;0.40;99.90
41985;DHT22;28319;48.116;10.818;2024-01-30T06:48:25;0.40;99.90
41985;DHT22;28319;48.116;10.818;2024-01-30T06:53:29;0.30;99.90
41985;DHT22;28319;48.116;10.818;2024-01-30T06:58:31;0.30;99.90
41985;DHT22;28319;48.116;10.818;2024-01-30T07:03:33;0.30;99.90
41985;DHT22;28319;48.116;10.818;2024-01-30T07:08:36;0.40;99.90
41985;DHT22;28319;48.116;10.818;2024-01-30T07:13:39;0.40;99.90
41985;DHT22;28319;48.116;10.818;2024-01-30T07:18:41;0.40;99.90
41985;DHT22;28319;48.116;10.818;2024-01-30T07:23:45;0.40;99.90
41985;DHT22;28319;48.116;10.818;2024-01-30T07:28:47;0.50;99.90
41985;DHT22;28319;48.116;10.818;2024-01-30T07:33:49;0.50;99.90
41985;DHT22;28319;48.116;10.818;2024-01-30T07:38:52;0.60;99.90
41985;DHT22;28319;48.116;10.818;2024-01-30T07:43:55;0.60;99.90
41985;DHT22;28319;48.116;10.818;2024-01-30T07:48:57;0.70;99.90
41985;DHT22;28319;48.116;10.818;2024-01-30T07:54:00;0.70;99.90
41985;DHT22;28319;48.116;10.818;2024-01-30T07:59:02;0.80;99.90
41985;DHT22;28319;48.116;10.818;2024-01-30T08:04:04;0.90;99.90
41985;DHT22;28319;48.116;10.818;2024-01-30T08:09:08;1.00;99.90
41985;DHT22;28319;48.116;10.818;2024-01-30T08:14:10;1.10;99.90
41985;DHT22;28319;48.116;10.818;2024-01-30T08:19:14;1.20;99.90
41985;DHT22;28319;48.116;10.818;2024-01-30T08:24:17;1.40;99.90
41985;DHT22;28319;48.116;10.818;2024-01-30T08:29:19;1.40;99.90
41985;DHT22;28319;48.116;10.818;2024-01-30T08:34:21;1.60;99.90
41985;DHT22;28319;48.116;10.818;2024-01-30T08:39:25;1.70;99.90
41985;DHT22;28319;48.116;10.818;2024-01-30T08:44:27;1.90;99.90
41985;DHT22;28319;48.116;10.818;2024-01-30T08:49:29;2.00;99.90
41985;DHT22;28319;48.116;10.818;2024-01-30T08:54:32;2.10;99.90
41985;DHT22;28319;48.116;10.818;2024-01-30T08:59:35;2.30;99.90
41985;DHT22;28319;48.116;10.818;2024-01-30T09:04:37;2.50;99.90
41985;DHT22;28319;48.116;10.818;2024-01-30T09:09:41;2.70;99.90
41985;DHT22;28319;48.116;10.818;2024-01-30T09:14:43;2.90;99.90
41985;DHT22;28319;48.116;10.818;2024-01-30T09:19:45;3.20;99.90
41985;DHT22;28319;48.116;10.818;2024-01-30T09:24:49;3.50;99.90
41985;DHT22;28319;48.116;10.818;2024-01-30T09:29:51;3.80;99.90
41985;DHT22;28319;48.116;10.818;2024-01-30T09:34:52;4.20;99.90
41985;DHT22;28319;48.116;10.818;2024-01-30T09:39:56;4.50;99.90
41985;DHT22;28319;48.116;10.818;2024-01-30T09:44:58;4.80;99.90
41985;DHT22;28319;48.116;10.818;2024-01-30T09:50:01;5.20;99.90
41985;DHT22;28319;48.116;10.818;2024-01-30T09:55:09;5.50;99.90
41985;DHT22;28319;48.116;10.818;2024-01-30T10:00:12;5.90;99.90
41985;DHT22;28319;48.116;10.818;2024-01-30T10:05:16;6.00;99.90
41985;DHT22;28319;48.116;10.818;2024-01-30T10:10:23;6.20;99.90
41985;DHT22;28319;48.116;10.818;2024-01-30T10:15:25;6.40;99.90
41985;DHT22;28319;48.116;10.818;2024-01-30T10:20:29;6.50;99.90
41985;DHT22;28319;48.116;10.818;2024-01-30T10:25:33;6.40;99.90
41985;DHT22;28319;48.116;10.818;2024-01-30T10:30:34;6.50;99.90
41985;DHT22;28319;48.116;10.818;2024-01-30T10:35:36;6.70;99.90
41985;DHT22;28319;48.116;10.818;2024-01-30T10:40:40;6.80;99.90
41985;DHT22;28319;48.116;10.818;2024-01-30T10:45:46;7.00;99.90
41985;DHT22;28319;48.116;10.818;2024-01-30T10:50:51;7.20;99.90
41985;DHT22;28319;48.116;10.818;2024-01-30T10:55:58;7.40;99.90
41985;DHT22;28319;48.116;10.818;2024-01-30T11:01:00;7.50;99.90
41985;DHT22;28319;48.116;10.818;2024-01-30T11:06:03;7.60;99.90
41985;DHT22;28319;48.116;10.818;2024-01-30T11:11:09;7.80;99.90
41985;DHT22;28319;48.116;10.818;2024-01-30T11:16:11;8.00;99.90
41985;DHT22;28319;48.116;10.818;2024-01-30T11:21:16;8.20;99.90
41985;DHT22;28319;48.116;10.818;2024-01-30T11:26:24;8.50;99.90
41985;DHT22;28319;48.116;10.818;2024-01-30T11:31:29;8.70;99.90
41985;DHT22;28319;48.116;10.818;2024-01-30T11:36:32;8.60;99.90
41985;DHT22;28319;48.116;10.818;2024-01-30T11:41:40;8.70;99.90
41985;DHT22;28319;48.116;10.818;2024-01-30T11:46:42;8.80;99.90
41985;DHT22;28319;48.116;10.818;2024-01-30T11:51:45;8.90;99.90
41985;DHT22;28319;48.116;10.818;2024-01-30T11:56:51;8.90;99.90
41985;DHT22;28319;48.116;10.818;2024-01-30T12:01:53;9.00;99.90
41985;DHT22;28319;48.116;10.818;2024-01-30T12:06:55;9.10;99.90
41985;DHT22;28319;48.116;10.818;2024-01-30T12:11:59;9.20;99.90
41985;DHT22;28319;48.116;10.818;2024-01-30T12:17:01;9.30;99.90
41985;DHT22;28319;48.116;10.818;2024-01-30T12:22:03;9.50;99.90
41985;DHT22;28319;48.116;10.818;2024-01-30T12:27:14;9.70;99.90
41985;DHT22;28319;48.116;10.818;2024-01-30T12:32:16;10.00;99.60
41985;DHT22;28319;48.116;10.818;2024-01-30T12:37:18;10.30;98.80
41985;DHT22;28319;48.116;10.818;2024-01-30T12:42:27;10.30;99.10
41985;DHT22;28319;48.116;10.818;2024-01-30T12:47:29;10.30;98.90
41985;DHT22;28319;48.116;10.818;2024-01-30T12:52:32;10.20;99.30
41985;DHT22;28319;48.116;10.818;2024-01-30T12:57:36;10.20;99.60
41985;DHT22;28319;48.116;10.818;2024-01-30T13:02:40;10.20;97.70
41985;DHT22;28319;48.116;10.818;2024-01-30T13:07:43;10.20;98.20
41985;DHT22;28319;48.116;10.818;2024-01-30T13:12:46;10.10;97.60
41985;DHT22;28319;48.116;10.818;2024-01-30T13:17:48;10.00;97.10
41985;DHT22;28319;48.116;10.818;2024-01-30T13:22:50;10.00;96.90
41985;DHT22;28319;48.116;10.818;2024-01-30T13:27:54;10.00;97.00
41985;DHT22;28319;48.116;10.818;2024-01-30T13:32:56;9.90;97.00
41985;DHT22;28319;48.116;10.818;2024-01-30T13:37:58;9.90;97.70
41985;DHT22;28319;48.116;10.818;2024-01-30T13:43:01;9.90;98.00
41985;DHT22;28319;48.116;10.818;2024-01-30T13:48:04;10.00;97.50
41985;DHT22;28319;48.116;10.818;2024-01-30T13:53:06;10.20;97.20
41985;DHT22;28319;48.116;10.818;2024-01-30T13:58:10;10.30;97.00
41985;DHT22;28319;48.116;10.818;2024-01-30T14:03:12;10.60;97.40
41985;DHT22;28319;48.116;10.818;2024-01-30T14:08:15;11.00;96.20
41985;DHT22;28319;48.116;10.818;2024-01-30T14:13:19;11.10;97.10
41985;DHT22;28319;48.116;10.818;2024-01-30T14:18:21;11.00;96.60
41985;DHT22;28319;48.116;10.818;2024-01-30T14:23:24;11.00;97.20
41985;DHT22;28319;48.116;10.818;2024-01-30T14:28:27;11.00;97.80
41985;DHT22;28319;48.116;10.818;2024-01-30T14:33:29;11.00;98.10
41985;DHT22;28319;48.116;10.818;2024-01-30T14:38:31;10.90;99.00
41985;DHT22;28319;48.116;10.818;2024-01-30T14:43:34;10.90;98.60
41985;DHT22;28319;48.116;10.818;2024-01-30T14:48:38;10.70;99.40
41985;DHT22;28319;48.116;10.818;2024-01-30T14:53:40;10.60;99.90
41985;DHT22;28319;48.116;10.818;2024-01-30T14:58:43;10.40;99.90
41985;DHT22;28319;48.116;10.818;2024-01-30T15:03:45;10.40;99.90
41985;DHT22;28319;48.116;10.818;2024-01-30T15:08:47;10.20;99.90
41985;DHT22;28319;48.116;10.818;2024-01-30T15:13:51;10.10;99.90
41985;DHT22;28319;48.116;10.818;2024-01-30T15:18:52;10.00;99.80
41985;DHT22;28319;48.116;10.818;2024-01-30T15:23:54;9.90;99.90
41985;DHT22;28319;48.116;10.818;2024-01-30T15:28:58;9.80;98.90
41985;DHT22;28319;48.116;10.818;2024-01-30T15:34:00;9.60;99.60
41985;DHT22;28319;48.116;10.818;2024-01-30T15:39:02;9.50;99.90
41985;DHT22;28319;48.116;10.818;2024-01-30T15:44:07;9.40;99.90
41985;DHT22;28319;48.116;10.818;2024-01-30T15:49:09;9.10;99.90
41985;DHT22;28319;48.116;10.818;2024-01-30T15:54:11;8.90;99.90
41985;DHT22;28319;48.116;10.818;2024-01-30T15:59:15;8.90;99.90
41985;DHT22;28319;48.116;10.818;2024-01-30T16:04:17;8.80;99.90
41985;DHT22;28319;48.116;10.818;2024-01-30T16:09:19;8.80;99.90
41985;DHT22;28319;48.116;10.818;2024-01-30T16:14:22;8.90;99.90
41985;DHT22;28319;48.116;10.818;2024-01-30T16:19:24;8.80;99.90
41985;DHT22;28319;48.116;10.818;2024-01-30T16:24:26;8.70;99.90
41985;DHT22;28319;48.116;10.818;2024-01-30T16:29:29;8.70;99.90
41985;DHT22;28319;48.116;10.818;2024-01-30T16:34:31;8.60;99.90
41985;DHT22;28319;48.116;10.818;2024-01-30T16:39:33;8.40;99.90
41985;DHT22;28319;48.116;10.818;2024-01-30T16:44:36;8.20;99.90
41985;DHT22;28319;48.116;10.818;2024-01-30T16:49:38;8.10;99.90
41985;DHT22;28319;48.116;10.818;2024-01-30T16:54:40;8.00;99.90
41985;DHT22;28319;48.116;10.818;2024-01-30T16:59:44;7.90;99.90
41985;DHT22;28319;48.116;10.818;2024-01-30T17:04:45;7.90;99.90
41985;DHT22;28319;48.116;10.818;2024-01-30T17:09:47;7.70;99.90
41985;DHT22;28319;48.116;10.818;2024-01-30T17:14:51;7.50;99.90
41985;DHT22;28319;48.116;10.818;2024-01-30T17:19:53;7.30;99.90
41985;DHT22;28319;48.116;10.818;2024-01-30T17:24:55;7.30;99.70
41985;DHT22;28319;48.116;10.818;2024-01-30T17:29:59;7.40;99.20
41985;DHT22;28319;48.116;10.818;2024-01-30T17:35:01;7.40;99.00
41985;DHT22;28319;48.116;10.818;2024-01-30T17:40:03;7.50;98.80
41985;DHT22;28319;48.116;10.818;2024-01-30T17:45:09;7.50;98.80
41985;DHT22;28319;48.116;10.818;2024-01-30T18:49:42;6.70;99.90
41985;DHT22;28319;48.116;10.818;2024-01-30T18:54:44;6.70;99.00
41985;DHT22;28319;48.116;10.818;2024-01-30T18:59:46;6.70;99.20
41985;DHT22;28319;48.116;10.818;2024-01-30T19:04:50;6.70;98.50
41985;DHT22;28319;48.116;10.818;2024-01-30T19:09:52;6.80;98.20
41985;DHT22;28319;48.116;10.818;2024-01-30T19:14:55;6.80;98.70
41985;DHT22;28319;48.116;10.818;2024-01-30T19:19:58;6.70;98.90
41985;DHT22;28319;48.116;10.818;2024-01-30T19:25:00;6.50;99.20
41985;DHT22;28319;48.116;10.818;2024-01-30T19:30:06;6.50;99.20
41985;DHT22;28319;48.116;10.818;2024-01-30T19:35:10;6.50;99.60
41985;DHT22;28319;48.116;10.818;2024-01-30T19:40:13;6.40;99.90
41985;DHT22;28319;48.116;10.818;2024-01-30T19:45:15;6.30;99.90
41985;DHT22;28319;48.116;10.818;2024-01-30T19:50:18;6.10;99.90
41985;DHT22;28319;48.116;10.818;2024-01-30T19:55:20;6.10;99.90
41985;DHT22;28319;48.116;10.818;2024-01-30T20:00:22;6.00;99.90
41985;DHT22;28319;48.116;10.818;2024-01-30T20:05:28;6.00;99.90
41985;DHT22;28319;48.116;10.818;2024-01-30T20:10:31;5.90;99.90
41985;DHT22;28319;48.116;10.818;2024-01-30T20:15:33;5.90;99.90
41985;DHT22;28319;48.116;10.818;2024-01-30T20:20:38;6.00;99.90
41985;DHT22;28319;48.116;10.818;2024-01-30T20:25:41;6.00;99.90
41985;DHT22;28319;48.116;10.818;2024-01-30T20:30:43;6.10;99.90
41985;DHT22;28319;48.116;10.818;2024-01-30T20:35:48;6.10;99.90
41985;DHT22;28319;48.116;10.818;2024-01-30T20:40:50;6.10;99.90
41985;DHT22;28319;48.116;10.818;2024-01-30T20:45:52;5.90;99.90
41985;DHT22;28319;48.116;10.818;2024-01-30T20:50:57;5.90;99.90
41985;DHT22;28319;48.116;10.818;2024-01-30T20:56:00;5.90;99.90
41985;DHT22;28319;48.116;10.818;2024-01-30T21:01:02;5.90;99.90
41985;DHT22;28319;48.116;10.818;2024-01-30T21:06:06;6.00;99.90
41985;DHT22;28319;48.116;10.818;2024-01-30T21:11:09;5.90;99.90
41985;DHT22;28319;48.116;10.818;2024-01-30T21:16:11;5.90;99.90
41985;DHT22;28319;48.116;10.818;2024-01-30T21:21:18;6.00;99.90
41985;DHT22;28319;48.116;10.818;2024-01-30T21:26:20;6.00;99.90
41985;DHT22;28319;48.116;10.818;2024-01-30T21:31:24;6.00;99.90
41985;DHT22;28319;48.116;10.818;2024-01-30T21:36:28;5.80;99.90
41985;DHT22;28319;48.116;10.818;2024-01-30T21:41:30;5.70;99.90
41985;DHT22;28319;48.116;10.818;2024-01-30T21:46:32;5.50;99.90
41985;DHT22;28319;48.116;10.818;2024-01-30T21:51:35;5.60;99.90
41985;DHT22;28319;48.116;10.818;2024-01-30T21:56:37;5.60;99.90
41985;DHT22;28319;48.116;10.818;2024-01-30T22:01:39;5.60;99.90
41985;DHT22;28319;48.116;10.818;2024-01-30T22:06:43;5.70;99.90
41985;DHT22;28319;48.116;10.818;2024-01-30T22:11:45;5.60;99.90
41985;DHT22;28319;48.116;10.818;2024-01-30T22:16:47;5.70;99.90
41985;DHT22;28319;48.116;10.818;2024-01-30T22:21:52;5.60;99.90
41985;DHT22;28319;48.116;10.818;2024-01-30T22:26:55;5.70;99.90
41985;DHT22;28319;48.116;10.818;2024-01-30T22:31:57;5.70;99.90
41985;DHT22;28319;48.116;10.818;2024-01-30T22:37:02;5.70;99.90
41985;DHT22;28319;48.116;10.818;2024-01-30T22:42:05;5.60;99.90
41985;DHT22;28319;48.116;10.818;2024-01-30T22:47:07;5.60;99.90
41985;DHT22;28319;48.116;10.818;2024-01-30T22:52:10;5.60;99.90
41985;DHT22;28319;48.116;10.818;2024-01-30T22:57:13;5.80;99.90
41985;DHT22;28319;48.116;10.818;2024-01-30T23:02:15;5.50;99.90
41985;DHT22;28319;48.116;10.818;2024-01-30T23:07:19;5.50;99.90
41985;DHT22;28319;48.116;10.818;2024-01-30T23:12:21;5.50;99.90
41985;DHT22;28319;48.116;10.818;2024-01-30T23:17:23;5.50;99.90
41985;DHT22;28319;48.116;10.818;2024-01-30T23:22:27;5.60;99.90
41985;DHT22;28319;48.116;10.818;2024-01-30T23:27:29;5.70;99.90
41985;DHT22;28319;48.116;10.818;2024-01-30T23:32:31;5.70;99.90
41985;DHT22;28319;48.116;10.818;2024-01-30T23:37:34;5.70;99.90
41985;DHT22;28319;48.116;10.818;2024-01-30T23:42:37;5.70;99.90
41985;DHT22;28319;48.116;10.818;2024-01-30T23:47:39;5.70;99.90
41985;DHT22;28319;48.116;10.818;2024-01-30T23:52:45;5.80;99.90
41985;DHT22;28319;48.116;10.818;2024-01-30T23:57:49;5.80;99.90
